Grand Canyon Natl Park, Arizona
Current Conditions -  °F | °C
As of 10:54 AM on Monday 24 Nov 2014 (Local Time) from KGCN Reporting Station
Clear Clear  
Wind Chill: 37°   Ceiling: Unl
Heat Index: 42°   Visibility: 10mi
Dew Point:   Wind: 9mph
Humidity: 20%   Direction: 320°NW
Pressure: 30.3"   Gusts: 21mph
Location:  36.2°N, 112.07°W
Report Text: KGCN 241754Z 32008G18KT 270V350 10SM CLR 06/M16 A3030 RMK AO2 SLP268 T00561161 10056 21167 51010
Loading
Personal Weather Stations






























Interactive Weather Map New forecast layout! Learn more

10-Day Weather Forecast

Advertisements
Track Severe Weather on mobile